Time;durP1;ratioP1;P1;durP2;ratioP2;P2;SDS_P1;SDS_P2;PMS_P1;PMS_P2;Temp;Humidity;BMP_temperature;BMP_pressure;BME280_temperature;BME280_humidity;BME280_pressure;Samples;Min_cycle;Max_cycle;Signal;HPM_P1;HPM_P2
2023/06/02 00:01:51;;;;;;;7.47;4.60;;;;;;;26.19;39.66;99319.19;4246465;33;33398;-64
2023/06/02 00:04:23;;;;;;;6.80;4.35;;;;;;;26.19;39.67;99321.94;4246640;33;33622;-65
2023/06/02 00:06:53;;;;;;;7.30;4.72;;;;;;;26.19;39.76;99326.56;4246655;33;34459;-65
2023/06/02 00:09:21;;;;;;;7.30;4.65;;;;;;;26.19;39.72;99323.84;4246435;33;35037;-63
2023/06/02 00:11:48;;;;;;;7.68;4.68;;;;;;;26.19;39.63;99321.94;4246579;33;33415;-64
2023/06/02 00:14:16;;;;;;;9.23;5.12;;;;;;;26.18;39.56;99309.34;4246752;33;34197;-64
2023/06/02 00:16:45;;;;;;;6.68;4.78;;;;;;;26.19;39.79;99312.91;4246468;33;33651;-65
2023/06/02 00:19:13;;;;;;;9.10;5.17;;;;;;;26.18;39.91;99314.00;4245228;33;34396;-65
2023/06/02 00:21:41;;;;;;;7.00;5.07;;;;;;;26.19;39.85;99310.16;4246684;33;33303;-65
2023/06/02 00:24:09;;;;;;;7.55;4.37;;;;;;;26.19;39.85;99305.53;4246427;33;33924;-65
2023/06/02 00:26:37;;;;;;;7.30;4.55;;;;;;;26.19;39.84;99310.16;4246461;33;33988;-65
2023/06/02 00:29:05;;;;;;;8.52;5.55;;;;;;;26.18;39.81;99319.47;4246492;33;34296;-64
2023/06/02 00:31:33;;;;;;;7.25;4.60;;;;;;;26.18;39.85;99317.53;4246268;33;33610;-64
2023/06/02 00:34:01;;;;;;;8.57;5.00;;;;;;;26.18;39.81;99322.19;4246699;33;33848;-65
2023/06/02 00:36:28;;;;;;;7.40;4.85;;;;;;;26.18;39.76;99314.81;4246518;33;33994;-65
2023/06/02 00:38:56;;;;;;;7.18;4.45;;;;;;;26.18;39.72;99320.28;4246412;33;33940;-65
2023/06/02 00:41:25;;;;;;;6.62;4.40;;;;;;;26.19;39.73;99316.47;4246606;33;33543;-64
2023/06/02 00:43:53;;;;;;;7.15;4.90;;;;;;;26.18;39.79;99314.81;4245139;33;34728;-65
2023/06/02 00:46:21;;;;;;;7.95;5.05;;;;;;;26.17;39.77;99313.16;4246300;33;33994;-65
2023/06/02 00:48:49;;;;;;;10.15;4.93;;;;;;;26.18;39.68;99314.00;4246473;33;34132;-65
2023/06/02 00:51:16;;;;;;;8.23;5.07;;;;;;;26.18;39.64;99314.00;4244994;33;34304;-65
2023/06/02 00:53:45;;;;;;;8.10;5.20;;;;;;;26.18;39.58;99312.06;4246442;33;34032;-65
2023/06/02 00:56:15;;;;;;;6.40;4.25;;;;;;;26.17;39.66;99315.09;4246206;33;33508;-65
2023/06/02 00:58:44;;;;;;;7.90;4.70;;;;;;;26.17;39.63;99313.16;4254391;33;34640;-65
2023/06/02 01:01:18;;;;;;;7.75;4.90;;;;;;;26.17;39.55;99313.16;4260732;33;33237;-65
2023/06/02 01:03:47;;;;;;;6.62;4.90;;;;;;;26.17;39.50;99307.69;4260541;33;33998;-64
2023/06/02 01:06:15;;;;;;;8.13;5.03;;;;;;;26.17;39.53;99302.22;4259244;33;33923;-65
2023/06/02 01:08:43;;;;;;;7.65;4.85;;;;;;;26.16;39.57;99306.06;4260562;33;34132;-64
2023/06/02 01:11:10;;;;;;;7.53;4.80;;;;;;;26.17;39.65;99304.16;4259307;33;33711;-64
2023/06/02 01:13:38;;;;;;;6.68;4.72;;;;;;;26.16;39.66;99307.94;4247403;33;33864;-65
2023/06/02 01:16:05;;;;;;;7.37;5.05;;;;;;;26.17;39.59;99313.16;4259241;33;33634;-65
2023/06/02 01:18:35;;;;;;;6.45;4.55;;;;;;;26.16;39.47;99308.78;4260415;33;34596;-64
2023/06/02 01:21:05;;;;;;;9.45;4.87;;;;;;;26.16;39.31;99308.78;4247693;33;34329;-64
2023/06/02 01:23:34;;;;;;;7.78;5.15;;;;;;;26.15;39.18;99301.66;4259220;33;34084;-64
2023/06/02 01:26:05;;;;;;;8.40;4.57;;;;;;;26.16;39.12;99303.31;4260080;33;33981;-65
2023/06/02 01:28:33;;;;;;;8.75;4.87;;;;;;;26.16;39.01;99308.78;4259157;33;34414;-63
2023/06/02 01:31:06;;;;;;;7.03;5.00;;;;;;;26.15;39.05;99309.84;4259799;33;34483;-64
2023/06/02 01:34:03;;;;;;;9.93;5.50;;;;;;;26.13;39.00;99301.09;4270667;33;34534;-64
2023/06/02 01:36:32;;;;;;;7.10;5.05;;;;;;;26.16;38.94;99299.72;4259009;33;34819;-64
2023/06/02 01:39:00;;;;;;;;;;;;;;;26.13;38.89;99309.28;4271338;33;34332;-64
2023/06/02 01:41:28;;;;;;;8.27;5.00;;;;;;;26.22;38.70;99306.09;4260181;33;33525;-65
2023/06/02 01:43:56;;;;;;;7.85;4.82;;;;;;;26.14;38.76;99310.13;4247527;33;33931;-65
2023/06/02 01:46:24;;;;;;;7.97;4.62;;;;;;;26.11;38.89;99303.25;4247384;33;34904;-65
2023/06/02 01:48:52;;;;;;;7.22;4.87;;;;;;;26.11;38.95;99305.16;4247264;33;34832;-65
2023/06/02 01:51:20;;;;;;;6.40;4.65;;;;;;;26.11;38.97;99310.62;4270604;33;33641;-64
2023/06/02 01:53:48;;;;;;;7.65;4.93;;;;;;;26.11;38.96;99310.62;4260121;33;34747;-65
2023/06/02 01:56:16;;;;;;;6.80;4.62;;;;;;;26.11;38.89;99300.53;4258854;33;33834;-65
2023/06/02 01:58:45;;;;;;;8.27;4.60;;;;;;;26.10;38.93;99304.31;4251575;33;35796;-65
2023/06/02 02:01:13;;;;;;;13.47;5.23;;;;;;;26.10;38.87;99304.31;4246114;33;33474;-65
2023/06/02 02:03:40;;;;;;;7.47;5.20;;;;;;;26.10;38.74;99307.06;4245989;33;33993;-63
2023/06/02 02:06:08;;;;;;;9.63;5.25;;;;;;;26.10;38.71;99301.59;4245697;33;33984;-64
2023/06/02 02:08:35;;;;;;;6.43;4.82;;;;;;;26.11;38.74;99305.16;4245927;33;34885;-65
2023/06/02 02:11:02;;;;;;;7.53;4.95;;;;;;;26.09;38.73;99305.41;4245896;33;34459;-66
2023/06/02 02:13:30;;;;;;;7.07;5.20;;;;;;;26.09;38.67;99296.38;4245740;33;34688;-64
2023/06/02 02:15:58;;;;;;;7.80;4.80;;;;;;;26.10;38.73;99298.03;4245898;33;33842;-65
2023/06/02 02:18:25;;;;;;;7.80;4.78;;;;;;;26.08;38.73;99300.22;4246183;33;34548;-65
2023/06/02 02:20:53;;;;;;;7.90;5.65;;;;;;;26.09;39.06;99288.19;4245666;33;34477;-65
2023/06/02 02:23:20;;;;;;;6.75;4.35;;;;;;;26.08;39.11;99290.09;4245876;33;34875;-64
2023/06/02 02:25:48;;;;;;;7.53;4.87;;;;;;;26.10;39.11;99287.91;4245757;33;34116;-63
2023/06/02 02:28:15;;;;;;;7.00;4.68;;;;;;;26.09;39.15;99279.97;4245589;33;33934;-65
2023/06/02 02:30:43;;;;;;;6.32;4.35;;;;;;;26.10;39.15;99292.56;4245999;33;33726;-64
2023/06/02 02:33:13;;;;;;;7.97;4.93;;;;;;;26.09;39.15;99290.91;4246040;33;33814;-62
2023/06/02 02:35:43;;;;;;;7.95;5.03;;;;;;;26.09;39.13;99291.75;4244602;33;34020;-62
2023/06/02 02:38:11;;;;;;;7.10;4.90;;;;;;;26.09;39.12;99291.75;4245962;33;34981;-65
2023/06/02 02:40:38;;;;;;;6.60;4.62;;;;;;;26.09;39.12;99294.47;4245721;33;33274;-62
2023/06/02 02:43:06;;;;;;;7.62;5.10;;;;;;;26.10;39.10;99293.38;4243919;33;33874;-62
2023/06/02 02:45:34;;;;;;;8.07;5.18;;;;;;;26.09;39.12;99297.22;4245676;33;34135;-62
2023/06/02 02:48:01;;;;;;;8.32;5.28;;;;;;;26.09;38.98;99291.75;4245879;33;34080;-62
2023/06/02 02:50:29;;;;;;;7.70;5.10;;;;;;;26.10;38.82;99292.56;4245687;33;33368;-62
2023/06/02 02:52:57;;;;;;;8.05;4.80;;;;;;;26.08;38.69;99289.28;4245588;33;33689;-62
2023/06/02 02:55:25;;;;;;;6.65;4.75;;;;;;;26.08;38.65;99292.84;4245488;33;33999;-62
2023/06/02 02:57:54;;;;;;;9.35;5.10;;;;;;;26.08;38.58;99289.28;4249057;33;33655;-62
2023/06/02 03:00:22;;;;;;;7.53;4.80;;;;;;;26.08;38.52;99287.38;4246784;33;34305;-63
2023/06/02 03:02:49;;;;;;;8.90;5.12;;;;;;;26.07;38.60;99282.16;4259380;33;34633;-63
2023/06/02 03:05:17;;;;;;;10.25;5.12;;;;;;;26.07;38.59;99288.44;4259575;33;34750;-63
2023/06/02 03:07:46;;;;;;;7.35;4.75;;;;;;;26.06;38.56;99284.03;4259762;33;33524;-63
2023/06/02 03:10:13;;;;;;;8.40;5.20;;;;;;;26.06;38.65;99284.03;4259320;33;33690;-63
2023/06/02 03:12:42;;;;;;;8.27;5.20;;;;;;;26.06;38.57;99280.47;4259420;33;33509;-62
2023/06/02 03:15:10;;;;;;;8.05;5.57;;;;;;;26.05;38.50;99290.59;4259459;33;34666;-62
2023/06/02 03:17:38;;;;;;;8.07;5.18;;;;;;;26.06;38.57;99285.94;4259516;33;34148;-63
2023/06/02 03:20:08;;;;;;;8.73;4.90;;;;;;;26.04;38.62;99280.75;4258462;33;34323;-62
2023/06/02 03:22:37;;;;;;;8.52;5.10;;;;;;;26.04;38.59;99283.47;4259550;33;34576;-63
2023/06/02 03:25:05;;;;;;;8.50;5.10;;;;;;;26.04;38.54;99278.03;4259087;33;34875;-63
2023/06/02 03:27:33;;;;;;;7.75;4.70;;;;;;;26.05;38.49;99284.31;4259541;33;33724;-64
2023/06/02 03:30:02;;;;;;;8.05;4.80;;;;;;;26.04;38.47;99274.47;4246695;33;34500;-63
2023/06/02 03:32:31;;;;;;;6.60;4.50;;;;;;;26.03;38.48;99279.09;4259271;33;33555;-64
2023/06/02 03:34:59;;;;;;;7.00;4.93;;;;;;;26.04;38.49;99280.75;4259277;33;34100;-65
2023/06/02 03:37:27;;;;;;;7.62;4.65;;;;;;;26.04;38.56;99285.41;4257909;33;33766;-65
2023/06/02 03:39:54;;;;;;;7.20;4.78;;;;;;;26.03;38.50;99284.56;4258942;33;33421;-65
2023/06/02 03:42:22;;;;;;;8.63;5.18;;;;;;;26.02;38.45;99285.66;4258937;33;33912;-64
2023/06/02 03:44:50;;;;;;;9.02;5.10;;;;;;;26.03;38.48;99284.56;4259279;33;34023;-65
2023/06/02 03:47:17;;;;;;;8.85;5.32;;;;;;;26.03;38.47;99289.22;4258611;33;34272;-64
2023/06/02 03:49:45;;;;;;;11.12;5.37;;;;;;;26.02;38.41;99291.13;4258863;33;33457;-70
2023/06/02 03:52:13;;;;;;;12.93;5.55;;;;;;;26.02;38.60;99290.28;4258834;33;35176;-67
2023/06/02 03:54:40;;;;;;;7.40;5.22;;;;;;;26.02;38.46;99290.28;4259939;33;33791;-68
2023/06/02 03:57:08;;;;;;;8.15;5.07;;;;;;;26.01;38.49;99283.97;4260803;33;33953;-69
2023/06/02 03:59:36;;;;;;;9.00;5.35;;;;;;;26.02;38.47;99290.28;4247326;33;34380;-69
2023/06/02 04:02:05;;;;;;;10.30;5.12;;;;;;;25.99;38.44;99286.16;4246563;33;33752;-67
2023/06/02 04:04:36;;;;;;;6.70;5.10;;;;;;;25.99;38.44;99291.63;4246583;33;34563;-68
2023/06/02 04:07:04;;;;;;;10.40;5.22;;;;;;;25.98;38.45;99292.72;4246688;33;34272;-69
2023/06/02 04:09:32;;;;;;;7.62;4.97;;;;;;;25.97;38.45;99292.97;4257527;33;34501;-70
2023/06/02 04:12:00;;;;;;;8.73;4.97;;;;;;;25.96;38.45;99289.41;4260875;33;33859;-71
2023/06/02 04:14:30;;;;;;;;;;;;;;;25.94;38.48;99291.56;4261144;33;33880;-70
2023/06/02 04:16:58;;;;;;;7.95;5.30;;;;;;;26.03;38.32;99290.03;4260786;33;34280;-69
2023/06/02 04:19:27;;;;;;;10.32;5.65;;;;;;;25.94;38.46;99286.94;4257234;33;33713;-69
2023/06/02 04:21:55;;;;;;;12.30;5.87;;;;;;;25.93;38.56;99287.19;4260296;33;34052;-69
2023/06/02 04:24:22;;;;;;;7.87;5.60;;;;;;;25.90;38.65;99288.53;4260896;33;33642;-69
2023/06/02 04:26:51;;;;;;;7.78;5.20;;;;;;;25.90;38.68;99291.25;4250063;33;32895;-68
2023/06/02 04:29:19;;;;;;;8.30;5.20;;;;;;;25.88;38.70;99282.50;4254845;33;33636;-68
2023/06/02 04:31:47;;;;;;;9.80;4.87;;;;;;;25.88;38.73;99284.37;4258960;33;34515;-67
2023/06/02 04:34:16;;;;;;;9.18;5.70;;;;;;;25.88;38.75;99287.09;4256681;33;33996;-68
2023/06/02 04:36:43;;;;;;;11.77;6.05;;;;;;;25.88;38.73;99284.37;4245834;33;34148;-68
2023/06/02 04:39:12;;;;;;;8.00;5.10;;;;;;;25.87;38.74;99280.00;4245980;33;33675;-67
2023/06/02 04:41:39;;;;;;;7.93;4.65;;;;;;;25.86;38.76;99284.63;4246147;33;33893;-67
2023/06/02 04:44:09;;;;;;;8.50;5.18;;;;;;;25.86;38.79;99281.09;4246043;33;33546;-68
2023/06/02 04:46:37;;;;;;;11.70;5.43;;;;;;;25.86;38.77;99279.16;4250186;33;34121;-68
2023/06/02 04:49:08;;;;;;;8.98;5.25;;;;;;;25.86;38.79;99281.91;4260538;33;32540;-68
2023/06/02 04:51:37;;;;;;;7.93;4.95;;;;;;;25.86;38.83;99289.28;4260763;33;34649;-68
2023/06/02 04:54:06;;;;;;;9.18;5.35;;;;;;;25.86;38.85;99284.63;4258583;33;34970;-68
2023/06/02 04:56:36;;;;;;;12.18;5.45;;;;;;;25.85;38.87;99282.16;4260484;33;33954;-68
2023/06/02 04:59:04;;;;;;;7.55;4.57;;;;;;;25.86;38.89;99292.00;4259636;33;34343;-68
2023/06/02 05:01:33;;;;;;;8.05;5.07;;;;;;;25.85;38.92;99284.91;4259289;33;34708;-69
2023/06/02 05:04:01;;;;;;;9.43;5.40;;;;;;;25.86;38.95;99283.81;4260017;33;34090;-68
2023/06/02 05:06:30;;;;;;;9.05;5.80;;;;;;;25.85;38.97;99290.38;4259828;33;34912;-67
2023/06/02 05:08:58;;;;;;;7.97;5.12;;;;;;;25.85;38.98;99285.72;4258519;33;34487;-70
2023/06/02 05:11:25;;;;;;;9.30;5.60;;;;;;;25.84;39.02;99289.56;4261917;33;34114;-68
2023/06/02 05:13:55;;;;;;;8.55;4.95;;;;;;;25.86;39.05;99294.75;4266720;33;34253;-71
2023/06/02 05:16:23;;;;;;;8.48;5.45;;;;;;;25.85;39.09;99290.38;4266740;33;34059;-72
2023/06/02 05:18:51;;;;;;;8.60;5.32;;;;;;;25.85;39.14;99291.19;4260248;33;33736;-71
2023/06/02 05:21:19;;;;;;;10.85;5.60;;;;;;;25.86;39.16;99286.56;4260170;33;34644;-71
2023/06/02 05:23:47;;;;;;;6.87;4.72;;;;;;;25.86;39.18;99287.38;4260594;33;33833;-70
2023/06/02 05:26:15;;;;;;;8.75;5.25;;;;;;;25.86;39.17;99292.00;4260105;33;34655;-70
2023/06/02 05:28:43;;;;;;;9.23;5.50;;;;;;;25.86;39.15;99287.38;4260188;33;33499;-71
2023/06/02 05:31:12;;;;;;;9.40;5.37;;;;;;;25.87;39.15;99290.94;4260571;33;34066;-72
2023/06/02 05:33:39;;;;;;;9.45;5.37;;;;;;;25.86;39.17;99287.38;4270125;33;33743;-70
2023/06/02 05:36:07;;;;;;;7.95;5.25;;;;;;;25.87;39.16;99291.75;4260200;33;34014;-72
2023/06/02 05:38:35;;;;;;;7.43;5.00;;;;;;;25.88;39.17;99290.69;4260185;33;34604;-71
2023/06/02 05:41:02;;;;;;;11.82;5.37;;;;;;;25.87;39.17;99282.72;4257123;33;33557;-68
2023/06/02 05:43:30;;;;;;;9.05;5.18;;;;;;;25.88;39.17;99287.09;4254215;33;34055;-69
2023/06/02 05:45:59;;;;;;;10.68;4.95;;;;;;;25.87;39.19;99283.56;4252063;33;34873;-68
2023/06/02 05:48:27;;;;;;;9.27;5.23;;;;;;;25.87;39.24;99283.56;4246049;33;33319;-67
2023/06/02 05:50:54;;;;;;;7.75;5.20;;;;;;;25.89;39.31;99286.88;4259225;33;34743;-68
2023/06/02 05:53:22;;;;;;;8.57;5.62;;;;;;;25.89;39.49;99286.06;4259923;33;34822;-68
2023/06/02 05:55:50;;;;;;;9.30;5.55;;;;;;;25.89;39.53;99286.06;4260035;33;33620;-67
2023/06/02 05:58:18;;;;;;;8.48;5.30;;;;;;;25.90;39.60;99287.69;4260329;33;34324;-67
2023/06/02 06:00:47;;;;;;;6.93;5.30;;;;;;;25.89;39.53;99280.59;4258776;33;33794;-67
2023/06/02 06:03:15;;;;;;;7.47;5.35;;;;;;;25.92;39.53;99285.53;4245973;33;34706;-68
2023/06/02 06:05:43;;;;;;;6.97;4.95;;;;;;;25.91;39.52;99287.44;4244979;33;34613;-69
2023/06/02 06:08:11;;;;;;;9.60;5.90;;;;;;;25.93;39.61;99287.19;4245761;33;33496;-67
2023/06/02 06:10:42;;;;;;;8.95;5.57;;;;;;;25.92;39.63;99283.59;4246138;33;34658;-67
2023/06/02 06:13:10;;;;;;;9.80;5.25;;;;;;;25.93;39.64;99287.19;4246157;33;34827;-68
2023/06/02 06:15:37;;;;;;;10.00;5.50;;;;;;;25.93;39.71;99288.03;4245845;33;34095;-67
2023/06/02 06:18:05;;;;;;;10.80;5.47;;;;;;;25.92;39.73;99283.59;4245601;33;34558;-68
2023/06/02 06:20:33;;;;;;;8.48;5.80;;;;;;;25.94;39.74;99283.38;4246113;33;33655;-69
2023/06/02 06:23:01;;;;;;;8.80;5.45;;;;;;;25.94;39.81;99289.66;4245829;33;34075;-67
2023/06/02 06:25:29;;;;;;;12.00;5.87;;;;;;;25.93;39.84;99290.75;4245840;33;33833;-68
2023/06/02 06:27:57;;;;;;;8.75;6.05;;;;;;;25.94;39.90;99286.94;4246095;33;33855;-67
2023/06/02 06:30:24;;;;;;;10.38;6.35;;;;;;;25.95;39.95;99294.03;4245820;33;34035;-68
2023/06/02 06:32:53;;;;;;;10.35;6.07;;;;;;;25.95;40.02;99294.03;4245990;33;35007;-68
2023/06/02 06:35:20;;;;;;;7.70;5.15;;;;;;;25.95;40.05;99295.97;4245914;33;34742;-68
2023/06/02 06:37:48;;;;;;;7.60;5.25;;;;;;;25.96;40.14;99300.34;4248387;33;33540;-68
2023/06/02 06:40:16;;;;;;;7.72;5.12;;;;;;;25.97;40.06;99301.16;4259803;33;34045;-70
2023/06/02 06:42:44;;;;;;;8.48;5.93;;;;;;;25.95;40.07;99302.25;4260018;33;34886;-70
2023/06/02 06:45:11;;;;;;;8.27;5.78;;;;;;;25.97;40.10;99312.09;4259992;33;33991;-71
2023/06/02 06:47:40;;;;;;;8.45;5.50;;;;;;;25.97;40.14;99307.44;4260015;33;34397;-71
2023/06/02 06:50:09;;;;;;;9.60;5.37;;;;;;;25.96;40.17;99311.25;4257211;33;33825;-67
2023/06/02 06:52:37;;;;;;;7.93;5.28;;;;;;;25.99;40.13;99307.22;4258635;33;33688;-67
2023/06/02 06:55:05;;;;;;;13.88;5.93;;;;;;;25.99;40.24;99308.03;4260411;33;33867;-69
2023/06/02 06:57:33;;;;;;;14.60;5.82;;;;;;;25.98;40.23;99311.84;4271006;33;34455;-63
2023/06/02 07:00:03;;;;;;;8.00;5.65;;;;;;;26.00;40.32;99306.94;4259672;33;34540;-63
2023/06/02 07:02:31;;;;;;;9.52;5.97;;;;;;;25.99;40.39;99315.41;4259688;33;34199;-62
2023/06/02 07:05:00;;;;;;;11.07;5.53;;;;;;;26.00;40.39;99312.41;4259337;33;33641;-63
2023/06/02 07:07:28;;;;;;;9.75;5.72;;;;;;;26.01;40.41;99319.53;4258120;33;34004;-64
2023/06/02 07:09:56;;;;;;;11.12;5.93;;;;;;;26.03;40.44;99313.81;4255950;33;34054;-63
2023/06/02 07:12:23;;;;;;;8.52;5.72;;;;;;;26.04;40.45;99313.56;4245458;33;34168;-64
2023/06/02 07:14:52;;;;;;;9.00;5.55;;;;;;;26.03;40.41;99313.81;4244597;33;34307;-64
2023/06/02 07:17:20;;;;;;;9.57;6.03;;;;;;;26.04;40.36;99308.09;4244673;33;34170;-64
2023/06/02 07:19:47;;;;;;;7.72;4.87;;;;;;;26.06;40.33;99307.81;4244688;33;34222;-63
2023/06/02 07:22:15;;;;;;;9.05;5.45;;;;;;;26.04;40.32;99310.81;4251650;33;34829;-66
2023/06/02 07:24:43;;;;;;;7.80;5.53;;;;;;;26.05;40.29;99312.47;4258556;33;34992;-66
2023/06/02 07:27:12;;;;;;;8.82;5.32;;;;;;;26.04;40.28;99310.81;4257956;33;33665;-64
2023/06/02 07:29:42;;;;;;;8.52;5.60;;;;;;;26.04;40.26;99302.63;4254736;33;35138;-67
2023/06/02 07:32:10;;;;;;;9.18;5.93;;;;;;;26.06;40.27;99310.56;4261067;33;33641;-67
2023/06/02 07:34:37;;;;;;;8.18;5.60;;;;;;;26.06;40.25;99311.38;4260806;33;34485;-65
2023/06/02 07:37:05;;;;;;;9.35;5.62;;;;;;;26.06;40.21;99310.56;4260934;33;33737;-63
2023/06/02 07:39:33;;;;;;;8.30;5.25;;;;;;;26.08;40.19;99308.41;4260777;33;34865;-66
2023/06/02 07:42:00;;;;;;;8.48;5.30;;;;;;;26.07;40.19;99306.78;4260962;33;34185;-67
2023/06/02 07:44:28;;;;;;;7.53;5.00;;;;;;;26.07;40.18;99302.13;4261206;33;34273;-67
2023/06/02 07:46:56;;;;;;;6.72;4.62;;;;;;;26.09;40.17;99307.31;4260490;33;34491;-64
2023/06/02 07:49:23;;;;;;;9.02;5.20;;;;;;;26.08;40.17;99302.94;4260782;33;34546;-67
2023/06/02 07:51:51;;;;;;;6.97;4.97;;;;;;;26.08;40.15;99292.84;4261087;33;34053;-62
2023/06/02 07:54:20;;;;;;;8.60;5.53;;;;;;;26.09;40.13;99308.16;4259870;33;34114;-64
2023/06/02 07:56:50;;;;;;;8.15;5.28;;;;;;;26.09;40.12;99308.16;4247618;33;34288;-64
2023/06/02 07:59:18;;;;;;;7.65;5.47;;;;;;;26.10;40.11;99307.06;4260778;33;33972;-64
2023/06/02 08:01:46;;;;;;;6.90;4.68;;;;;;;26.11;40.09;99310.62;4261172;33;33681;-64
2023/06/02 08:04:14;;;;;;;8.52;6.15;;;;;;;26.11;40.08;99302.41;4260487;33;34278;-65
2023/06/02 08:06:41;;;;;;;8.68;5.50;;;;;;;26.11;40.07;99305.16;4260767;33;33700;-66
2023/06/02 08:09:10;;;;;;;8.07;5.55;;;;;;;26.11;40.07;99306.00;4260617;33;33976;-67
2023/06/02 08:11:38;;;;;;;9.43;5.78;;;;;;;26.12;40.04;99296.72;4260607;33;34802;-68
2023/06/02 08:14:05;;;;;;;7.40;5.45;;;;;;;26.14;40.03;99307.37;4259276;33;34212;-64
2023/06/02 08:16:33;;;;;;;8.25;5.60;;;;;;;26.13;40.03;99303.00;4260640;33;33828;-64
2023/06/02 08:19:23;;;;;;;6.87;4.78;;;;;;;26.13;40.03;99303.81;4258222;33;33999;-65
2023/06/02 08:21:51;;;;;;;9.27;5.32;;;;;;;26.13;40.02;99309.28;4259878;33;34063;-64
2023/06/02 08:24:20;;;;;;;8.93;5.85;;;;;;;26.15;40.00;99307.09;4259312;33;34184;-64
2023/06/02 08:26:48;;;;;;;8.40;5.45;;;;;;;26.13;39.99;99298.34;4260625;33;33625;-65
2023/06/02 08:29:16;;;;;;;10.30;5.47;;;;;;;26.14;39.97;99305.47;4258537;33;34134;-63
2023/06/02 08:31:44;;;;;;;8.68;5.20;;;;;;;26.15;39.97;99309.03;4249542;33;33435;-63
2023/06/02 08:34:12;;;;;;;7.37;5.10;;;;;;;26.14;39.98;99301.91;4251629;33;34548;-62
2023/06/02 08:36:40;;;;;;;6.90;5.25;;;;;;;26.15;39.97;99303.56;4258289;33;33113;-65
2023/06/02 08:39:07;;;;;;;8.98;5.37;;;;;;;26.15;39.96;99301.66;4260547;33;33836;-64
2023/06/02 08:41:37;;;;;;;6.97;5.30;;;;;;;26.15;39.93;99304.38;4260510;33;34046;-64
2023/06/02 08:44:05;;;;;;;8.57;5.85;;;;;;;26.16;39.95;99302.47;4258897;33;33847;-67
2023/06/02 08:46:33;;;;;;;7.95;5.32;;;;;;;26.17;39.92;99309.59;4259822;33;33614;-67
2023/06/02 08:49:01;;;;;;;8.48;4.93;;;;;;;26.17;39.92;99299.50;4260591;33;34826;-66
2023/06/02 08:51:28;;;;;;;7.78;5.60;;;;;;;26.17;39.90;99304.16;4258047;33;33722;-67
2023/06/02 08:53:56;;;;;;;7.70;5.50;;;;;;;26.16;39.89;99303.31;4259347;33;34023;-66
2023/06/02 08:56:24;;;;;;;7.20;5.22;;;;;;;26.17;39.90;99298.66;4246939;33;33795;-66
2023/06/02 08:58:51;;;;;;;7.05;5.55;;;;;;;26.17;39.89;99291.28;4260386;33;34692;-66
2023/06/02 09:01:19;;;;;;;8.45;5.65;;;;;;;26.17;39.89;99288.56;4246480;33;33751;-67
2023/06/02 09:03:47;;;;;;;7.82;5.20;;;;;;;26.17;39.85;99288.56;4259392;33;34169;-67
2023/06/02 09:06:17;;;;;;;8.55;5.28;;;;;;;26.18;39.86;99284.72;4258491;33;33301;-66
2023/06/02 09:08:55;;;;;;;8.52;5.70;;;;;;;26.18;39.83;99282.00;4260480;33;33970;-67
2023/06/02 09:11:22;;;;;;;7.93;5.30;;;;;;;26.19;39.82;99280.09;4258972;33;33469;-66
2023/06/02 09:13:51;;;;;;;7.18;5.18;;;;;;;26.19;39.83;99269.97;4258311;33;35791;-67
2023/06/02 09:16:20;;;;;;;8.20;5.55;;;;;;;26.19;39.83;99266.41;4259817;33;34275;-65
2023/06/02 09:18:58;;;;;;;8.48;5.62;;;;;;;26.18;39.80;99262.03;4260258;33;33768;-65
2023/06/02 09:21:28;;;;;;;10.27;5.20;;;;;;;26.20;39.78;99255.22;4259480;33;34824;-66
2023/06/02 09:23:56;;;;;;;8.80;5.82;;;;;;;26.20;39.81;99268.06;4257870;33;34275;-67
2023/06/02 09:26:50;;;;;;;8.73;5.32;;;;;;;26.19;39.81;99263.69;4259471;33;34597;-66
2023/06/02 09:29:18;;;;;;;7.60;5.30;;;;;;;26.19;39.79;99260.94;4247388;33;34137;-63
2023/06/02 09:31:52;;;;;;;8.45;5.60;;;;;;;26.19;39.78;99248.09;4258888;33;34759;-66
2023/06/02 09:34:21;;;;;;;8.52;5.75;;;;;;;26.18;39.79;99257.38;4259462;33;35053;-63
2023/06/02 09:36:53;;;;;;;8.77;5.50;;;;;;;26.19;39.76;99258.22;4259383;33;33095;-63
2023/06/02 09:39:32;;;;;;;7.75;5.30;;;;;;;26.18;39.76;99254.66;4246933;33;34110;-65
2023/06/02 09:42:00;;;;;;;8.25;5.28;;;;;;;26.21;39.70;99253.31;4258841;33;33881;-65
2023/06/02 09:44:28;;;;;;;8.85;5.45;;;;;;;26.20;39.73;99243.44;4259163;33;34181;-65
2023/06/02 09:46:55;;;;;;;9.10;5.90;;;;;;;26.21;39.69;99242.38;4259015;33;34319;-63
2023/06/02 09:49:23;;;;;;;6.57;5.00;;;;;;;26.21;39.66;99239.66;4258771;33;34991;-67
2023/06/02 09:51:51;;;;;;;8.70;5.62;;;;;;;26.22;39.68;99240.47;4258381;33;34596;-66
2023/06/02 09:54:18;;;;;;;7.05;5.15;;;;;;;26.22;39.68;99237.75;4257265;33;34428;-66
2023/06/02 09:56:46;;;;;;;8.32;5.53;;;;;;;26.23;39.70;99233.91;4258567;33;32861;-67
2023/06/02 09:59:15;;;;;;;7.82;5.40;;;;;;;26.23;39.69;99228.44;4247464;33;34683;-67
2023/06/02 10:01:43;;;;;;;8.85;5.55;;;;;;;26.23;39.70;99242.12;4257636;33;34129;-67
2023/06/02 10:04:11;;;;;;;9.23;6.05;;;;;;;26.24;39.68;99261.00;4259612;33;34903;-65
2023/06/02 10:07:16;;;;;;;9.15;5.47;;;;;;;26.24;39.67;99265.62;4259481;33;34002;-66
2023/06/02 10:10:02;;;;;;;7.47;5.25;;;;;;;26.26;39.65;99256.09;4249301;33;34593;-64
2023/06/02 10:12:35;;;;;;;7.80;5.60;;;;;;;26.24;39.63;99241.84;4258163;33;33931;-65
2023/06/02 10:15:12;;;;;;;7.40;5.25;;;;;;;26.23;39.67;99250.31;4258626;33;34249;-66
2023/06/02 10:18:06;;;;;;;8.18;5.60;;;;;;;26.23;39.67;99256.63;4259190;33;34298;-67
2023/06/02 10:20:56;;;;;;;7.97;4.95;;;;;;;26.25;39.64;99248.13;4256429;33;33907;-65
2023/06/02 10:23:33;;;;;;;8.50;5.82;;;;;;;26.25;39.61;99253.63;4257293;33;33510;-64
2023/06/02 10:26:17;;;;;;;7.78;5.28;;;;;;;26.25;39.61;99267.28;4245194;33;33569;-66
2023/06/02 10:28:44;;;;;;;7.40;5.10;;;;;;;26.22;39.63;99270.56;4245583;33;33617;-65
2023/06/02 10:31:13;;;;;;;7.35;5.35;;;;;;;26.22;39.63;99278.75;4245966;33;33466;-63
2023/06/02 10:33:41;;;;;;;6.62;5.05;;;;;;;26.22;39.67;99265.09;4258343;33;33807;-65
2023/06/02 10:36:08;;;;;;;10.40;5.47;;;;;;;26.22;39.67;99265.09;4259390;33;34178;-66
2023/06/02 10:38:38;;;;;;;8.23;5.50;;;;;;;26.22;39.65;99254.97;4246000;33;33634;-65
2023/06/02 10:41:05;;;;;;;9.90;5.37;;;;;;;26.22;39.64;99246.75;4258691;33;33851;-65
2023/06/02 10:43:34;;;;;;;7.37;5.28;;;;;;;26.23;39.62;99240.22;4260116;33;33887;-64
2023/06/02 10:46:21;;;;;;;8.10;5.62;;;;;;;26.23;39.62;99233.91;4257229;33;34194;-67
2023/06/02 10:48:50;;;;;;;8.33;5.47;;;;;;;26.25;39.62;99232.56;4245961;33;33226;-64
2023/06/02 10:51:18;;;;;;;8.38;5.55;;;;;;;26.24;39.64;99230.09;4258761;33;33843;-64
2023/06/02 10:54:07;;;;;;;7.65;4.90;;;;;;;26.23;39.70;99231.19;4257086;33;33735;-63
2023/06/02 10:56:41;;;;;;;8.18;5.35;;;;;;;26.25;39.70;99238.03;4258710;33;34489;-64
2023/06/02 10:59:10;;;;;;;10.02;5.75;;;;;;;26.24;39.74;99241.03;4245545;33;33757;-64
2023/06/02 11:01:47;;;;;;;7.50;5.05;;;;;;;26.24;39.82;99241.03;4245840;33;33701;-66
2023/06/02 11:04:26;;;;;;;6.97;4.80;;;;;;;26.24;39.82;99239.13;4257957;33;33890;-65
2023/06/02 11:07:28;;;;;;;8.63;5.75;;;;;;;26.24;39.82;99246.50;4257662;33;34575;-64
2023/06/02 11:09:56;;;;;;;9.02;5.45;;;;;;;26.26;39.82;99260.75;4258797;33;34312;-63
2023/06/02 11:12:54;;;;;;;7.57;5.47;;;;;;;26.20;39.91;99257.94;4246527;33;34879;-66
2023/06/02 11:15:23;;;;;;;7.22;5.15;;;;;;;26.23;39.90;99278.50;4250640;33;33912;-65
2023/06/02 11:17:51;;;;;;;8.23;5.45;;;;;;;26.22;39.96;99314.31;4259450;33;35066;-67
2023/06/02 11:20:19;;;;;;;7.10;5.12;;;;;;;26.20;39.99;99320.00;4258938;33;34384;-68
2023/06/02 11:22:47;;;;;;;8.45;4.97;;;;;;;26.20;39.98;99325.47;4258398;33;34833;-66
2023/06/02 11:25:16;;;;;;;7.03;4.95;;;;;;;26.20;39.98;99293.50;4258770;33;34064;-65
2023/06/02 11:27:45;;;;;;;7.05;5.22;;;;;;;26.20;40.03;99290.75;4259577;33;34066;-66
2023/06/02 11:30:14;;;;;;;7.90;5.50;;;;;;;26.19;40.06;99286.38;4245033;33;33502;-67
2023/06/02 11:32:43;;;;;;;7.37;4.95;;;;;;;26.20;40.09;99298.13;4245748;33;34678;-66
2023/06/02 11:35:11;;;;;;;9.57;5.25;;;;;;;26.20;40.10;99323.56;4254300;33;33700;-67
2023/06/02 11:37:40;;;;;;;7.95;5.32;;;;;;;26.18;40.16;99328.47;4258793;33;34550;-67
2023/06/02 11:40:15;;;;;;;8.20;5.05;;;;;;;26.18;40.21;99314.81;4255677;33;33565;-67
2023/06/02 11:42:43;;;;;;;8.23;5.35;;;;;;;26.19;40.21;99318.38;4258968;33;34597;-66
2023/06/02 11:45:24;;;;;;;9.15;4.93;;;;;;;26.17;40.21;99304.97;4258180;33;33645;-63